Time;durP1;ratioP1;P1;durP2;ratioP2;P2;SDS_P1;SDS_P2;PMS_P1;PMS_P2;Temp;Humidity;BMP_temperature;BMP_pressure;BME280_temperature;BME280_humidity;BME280_pressure;Samples;Min_cycle;Max_cycle;Signal;HPM_P1;HPM_P2
2022/06/26 00:01:58;;;;;;;5.87;3.23;;;;;;;-143.84;65.44;45043.34;5053647;28;20479;-76
2022/06/26 00:04:25;;;;;;;5.23;3.00;;;;;;;-143.84;65.31;45035.75;5052964;28;20532;-76
2022/06/26 00:06:52;;;;;;;3.20;3.00;;;;;;;-143.84;65.10;45022.41;5051230;28;20496;-76
2022/06/26 00:09:19;;;;;;;5.00;2.73;;;;;;;-143.84;65.08;45066.22;5049946;28;20491;-77
2022/06/26 00:11:47;;;;;;;6.60;3.00;;;;;;;-143.84;64.85;45056.69;5050527;28;20501;-76
2022/06/26 00:14:15;;;;;;;2.83;2.63;;;;;;;-143.84;64.57;45052.88;5052112;28;21148;-77
2022/06/26 00:16:42;;;;;;;2.77;2.57;;;;;;;-143.84;64.86;45010.97;5052286;28;20461;-77
2022/06/26 00:19:10;;;;;;;3.00;2.80;;;;;;;-143.84;64.67;45041.44;5051394;28;20939;-77
2022/06/26 00:21:37;;;;;;;3.40;2.83;;;;;;;-143.84;64.66;45056.69;5052370;28;20491;-76
2022/06/26 00:24:05;;;;;;;3.23;3.03;;;;;;;-143.84;64.64;45035.75;5052328;28;20940;-77
2022/06/26 00:26:32;;;;;;;6.00;3.07;;;;;;;-143.84;64.49;45041.44;5052146;28;20441;-76
2022/06/26 00:28:59;;;;;;;3.20;2.90;;;;;;;-143.84;64.14;45047.16;5052582;28;20434;-77
2022/06/26 00:31:28;;;;;;;3.00;2.80;;;;;;;-143.84;63.94;45041.44;5052452;28;20444;-77
2022/06/26 00:33:55;;;;;;;3.40;3.20;;;;;;;-143.84;63.36;45049.06;5052490;28;20446;-77
2022/06/26 00:36:23;;;;;;;2.97;2.67;;;;;;;-143.84;62.56;45037.66;5051946;28;20496;-77
2022/06/26 00:38:51;;;;;;;5.20;2.67;;;;;;;-143.84;61.98;45041.44;5052380;28;20434;-77
2022/06/26 00:41:18;;;;;;;2.73;2.53;;;;;;;-143.84;62.13;45056.69;5052163;28;21061;-77
2022/06/26 00:43:45;;;;;;;3.13;2.93;;;;;;;-143.84;62.56;45045.25;5051890;28;21152;-77
2022/06/26 00:46:13;;;;;;;3.00;2.77;;;;;;;-143.84;63.75;45050.97;5051878;28;20481;-76
2022/06/26 00:48:41;;;;;;;2.67;2.47;;;;;;;-143.84;63.83;45062.41;5051425;28;20438;-76
2022/06/26 00:51:09;;;;;;;3.33;3.03;;;;;;;-143.84;63.55;45045.25;5051561;28;20806;-77
2022/06/26 00:53:36;;;;;;;11.27;2.83;;;;;;;-143.84;62.77;45068.13;5051355;28;20939;-76
2022/06/26 00:56:04;;;;;;;2.97;2.77;;;;;;;-143.84;62.58;45041.44;5051326;28;20441;-76
2022/06/26 00:58:32;;;;;;;3.73;3.20;;;;;;;-143.84;62.80;45041.44;5051113;28;20990;-77
2022/06/26 01:01:00;;;;;;;3.17;2.83;;;;;;;-143.84;62.78;45064.31;5052109;28;20449;-79
2022/06/26 01:03:27;;;;;;;5.40;3.27;;;;;;;-143.84;62.60;45033.84;5055514;28;21017;-80
2022/06/26 01:05:56;;;;;;;3.60;2.40;;;;;;;-143.84;61.99;45092.88;5055747;28;20466;-80
2022/06/26 01:08:24;;;;;;;2.60;2.40;;;;;;;-143.84;62.71;45024.31;5055074;28;20430;-80
2022/06/26 01:10:51;;;;;;;2.87;2.67;;;;;;;-143.84;62.68;45052.88;5055218;28;20862;-80
2022/06/26 01:13:18;;;;;;;3.70;3.20;;;;;;;-143.84;62.97;45026.22;5073909;28;20449;-80
2022/06/26 01:15:46;;;;;;;6.03;2.50;;;;;;;-143.84;62.71;45064.31;5075151;28;20480;-80
2022/06/26 01:18:13;;;;;;;5.30;3.70;;;;;;;-143.84;62.63;45045.25;5075181;28;20435;-80
2022/06/26 01:20:41;;;;;;;5.90;2.93;;;;;;;-143.84;62.79;45037.66;5074789;28;20433;-79
2022/06/26 01:23:10;;;;;;;2.80;2.60;;;;;;;-143.84;62.86;45054.78;5071746;28;20507;-76
2022/06/26 01:25:45;;;;;;;3.07;2.47;;;;;;;-143.84;63.14;45047.16;5069720;28;20899;-76
2022/06/26 01:28:13;;;;;;;4.73;3.50;;;;;;;-143.84;63.01;45049.06;5069710;28;20433;-76
2022/06/26 01:30:40;;;;;;;3.17;2.97;;;;;;;-143.84;62.64;45016.69;5069403;28;20432;-77
2022/06/26 01:33:08;;;;;;;2.47;2.37;;;;;;;-143.84;62.54;45049.06;5070491;28;20432;-76
2022/06/26 01:35:35;;;;;;;3.10;2.90;;;;;;;-143.84;62.32;45056.69;5070892;28;20436;-76
2022/06/26 01:38:15;;;;;;;3.00;2.80;;;;;;;-143.84;61.86;45039.53;5070696;28;20444;-76
2022/06/26 01:40:44;;;;;;;2.43;2.23;;;;;;;-143.84;61.70;45052.88;5070479;28;20440;-77
2022/06/26 01:43:13;;;;;;;3.00;2.87;;;;;;;-143.84;61.47;45022.41;5070506;28;20496;-76
2022/06/26 01:45:44;;;;;;;3.70;2.60;;;;;;;-143.84;61.38;45049.06;5070526;28;20554;-77
2022/06/26 01:48:11;;;;;;;2.60;2.50;;;;;;;-143.84;61.28;45033.84;5071092;28;20491;-76
2022/06/26 01:50:38;;;;;;;2.50;2.40;;;;;;;-143.84;61.13;45028.13;5072202;28;20907;-76
2022/06/26 01:53:06;;;;;;;3.33;2.33;;;;;;;-143.84;60.98;45047.16;5072216;28;20437;-76
2022/06/26 01:55:35;;;;;;;4.90;2.60;;;;;;;-143.84;60.74;45064.31;5071837;28;20483;-76
2022/06/26 01:58:03;;;;;;;3.87;2.80;;;;;;;-143.84;60.77;45049.06;5072078;28;20437;-76
2022/06/26 02:00:30;;;;;;;2.27;2.17;;;;;;;-143.84;59.98;45039.53;5072247;28;20498;-76
2022/06/26 02:02:58;;;;;;;2.20;2.10;;;;;;;-143.84;60.07;45035.75;5072089;28;20973;-76
2022/06/26 02:05:25;;;;;;;2.80;2.60;;;;;;;-143.84;59.67;45041.44;5072393;28;20471;-76
2022/06/26 02:07:53;;;;;;;2.40;2.20;;;;;;;-143.84;60.00;45052.88;5072233;28;20841;-76
2022/06/26 02:15:54;;;;;;;3.33;2.40;;;;;;;-143.84;58.77;45031.94;5071751;28;20468;-77
2022/06/26 02:18:23;;;;;;;2.20;2.10;;;;;;;-143.84;58.57;45054.78;5072011;28;20437;-76
2022/06/26 02:20:51;;;;;;;4.23;2.13;;;;;;;-143.84;59.18;45026.22;5071754;28;20433;-76
2022/06/26 02:23:18;;;;;;;3.27;2.97;;;;;;;-143.84;59.12;45056.69;5072246;28;20430;-76
2022/06/26 02:25:46;;;;;;;4.00;2.20;;;;;;;-143.84;60.02;45066.22;5072191;28;20806;-76
2022/06/26 02:28:16;;;;;;;2.40;2.13;;;;;;;-143.84;59.85;45043.34;5070248;28;20429;-76
2022/06/26 02:30:43;;;;;;;5.77;2.00;;;;;;;-143.84;59.57;45018.59;5070513;28;20448;-77
2022/06/26 02:33:10;;;;;;;2.30;2.20;;;;;;;-143.84;59.52;45041.44;5070187;28;20437;-76
2022/06/26 02:35:37;;;;;;;10.77;2.20;;;;;;;-143.84;59.73;45037.66;5070534;28;20472;-76
2022/06/26 02:38:04;;;;;;;2.30;2.03;;;;;;;-143.84;59.73;45024.31;5070476;28;20437;-76
2022/06/26 02:40:32;;;;;;;3.07;2.53;;;;;;;-143.84;60.27;45045.25;5070594;28;20441;-76
2022/06/26 02:43:00;;;;;;;2.23;1.87;;;;;;;-143.84;60.35;45031.94;5074785;28;20498;-76
2022/06/26 02:45:28;;;;;;;2.07;1.97;;;;;;;-143.84;60.61;45039.53;5074529;28;20476;-77
2022/06/26 02:47:56;;;;;;;5.63;2.30;;;;;;;-143.84;60.44;45052.88;5074732;28;20502;-77
2022/06/26 02:50:23;;;;;;;2.77;2.57;;;;;;;-143.84;60.29;45033.84;5074478;28;20448;-77
2022/06/26 02:52:50;;;;;;;2.70;2.50;;;;;;;-143.84;60.20;45060.50;5074356;28;20433;-77
2022/06/26 02:55:18;;;;;;;2.20;2.00;;;;;;;-143.84;59.55;45035.75;5074432;28;20495;-77
2022/06/26 02:57:46;;;;;;;2.80;2.60;;;;;;;-143.84;59.48;45050.97;5074166;28;20437;-76
2022/06/26 03:00:15;;;;;;;2.43;2.27;;;;;;;-143.84;59.03;45033.84;5074000;28;20439;-77
2022/06/26 03:02:43;;;;;;;3.07;2.57;;;;;;;-143.84;59.23;45037.66;5073672;28;21310;-76
2022/06/26 03:05:12;;;;;;;2.53;2.33;;;;;;;-143.84;59.36;45028.13;5073786;28;20437;-76
2022/06/26 03:07:39;;;;;;;4.37;2.67;;;;;;;-143.84;59.62;45030.03;5073394;28;20526;-76
2022/06/26 03:10:08;;;;;;;2.00;1.90;;;;;;;-143.84;59.55;45050.97;5073789;28;20845;-76
2022/06/26 03:12:35;;;;;;;4.20;2.43;;;;;;;-143.84;59.32;45062.41;5073065;28;20453;-76
2022/06/26 03:15:02;;;;;;;4.80;1.93;;;;;;;-143.84;58.54;45064.31;5073301;28;20488;-76
2022/06/26 03:17:30;;;;;;;8.27;2.10;;;;;;;-143.84;58.51;45041.44;5073664;28;20995;-76
2022/06/26 03:19:58;;;;;;;2.20;2.00;;;;;;;-143.84;57.68;45056.69;5073538;28;20757;-76
2022/06/26 03:22:25;;;;;;;4.10;1.80;;;;;;;-143.84;56.96;45041.44;5073901;28;20440;-77
2022/06/26 03:24:52;;;;;;;1.63;1.53;;;;;;;-143.84;55.95;45052.88;5073703;28;20494;-77
2022/06/26 03:27:20;;;;;;;4.90;1.90;;;;;;;-143.84;57.20;45018.59;5074167;28;20473;-77
2022/06/26 03:29:47;;;;;;;1.67;1.50;;;;;;;-143.84;55.82;45033.84;5074204;28;20429;-77
2022/06/26 03:32:14;;;;;;;1.70;1.60;;;;;;;-143.84;56.59;45024.31;5074013;28;20437;-77
2022/06/26 03:34:41;;;;;;;2.50;1.97;;;;;;;-143.84;55.64;45037.66;5073642;28;20445;-76
2022/06/26 03:37:10;;;;;;;1.83;1.73;;;;;;;-143.84;55.59;45022.41;5073066;28;20449;-74
2022/06/26 03:39:37;;;;;;;2.30;2.10;;;;;;;-143.84;55.31;45035.75;5072548;28;20440;-77
2022/06/26 03:42:05;;;;;;;1.87;1.77;;;;;;;-143.84;53.98;45030.03;5073082;28;20480;-77
2022/06/26 03:44:32;;;;;;;5.03;1.80;;;;;;;-143.84;50.96;45016.69;5073360;28;20498;-77
2022/06/26 03:47:00;;;;;;;1.90;1.80;;;;;;;-143.84;47.83;45014.78;5072825;28;20574;-77
2022/06/26 03:49:27;;;;;;;6.27;1.53;;;;;;;-143.84;44.82;44993.84;5072512;28;20526;-76
2022/06/26 03:51:54;;;;;;;2.70;1.80;;;;;;;-143.84;42.55;44990.03;5072085;28;20432;-79
2022/06/26 03:54:25;;;;;;;2.77;1.60;;;;;;;-143.84;39.69;44955.75;5068846;28;20433;-77
2022/06/26 03:56:52;;;;;;;8.60;2.43;;;;;;;-143.84;38.71;44948.16;5053216;28;21006;-77
2022/06/26 03:59:19;;;;;;;3.20;2.07;;;;;;;-143.84;37.82;44959.56;5053578;28;20434;-77
2022/06/26 04:01:46;;;;;;;1.87;1.77;;;;;;;-143.84;37.54;44957.66;5054748;28;20553;-77
2022/06/26 04:04:14;;;;;;;2.33;1.70;;;;;;;-143.84;37.66;44953.88;5054788;28;20430;-77
2022/06/26 04:06:41;;;;;;;3.67;1.73;;;;;;;-143.84;37.38;44948.16;5054562;28;20481;-77
2022/06/26 04:09:08;;;;;;;3.50;1.93;;;;;;;-143.84;37.91;44976.72;5053262;28;20438;-76
2022/06/26 04:11:36;;;;;;;3.50;2.20;;;;;;;-143.84;37.21;44955.75;5053268;28;20838;-76
2022/06/26 04:14:04;;;;;;;4.33;2.27;;;;;;;-143.84;36.58;44957.66;5053813;28;20446;-75
2022/06/26 04:16:31;;;;;;;2.20;2.00;;;;;;;-143.84;36.53;44957.66;5053393;28;20485;-75
2022/06/26 04:18:58;;;;;;;3.83;2.07;;;;;;;-143.84;36.81;44944.34;5053845;28;20458;-75
2022/06/26 04:21:25;;;;;;;4.40;2.23;;;;;;;-143.84;36.77;44938.63;5053803;28;20504;-76
2022/06/26 04:23:52;;;;;;;5.23;2.60;;;;;;;-143.84;36.20;44959.56;5053124;28;20955;-76
2022/06/26 04:26:20;;;;;;;4.50;2.57;;;;;;;-143.84;35.99;44921.50;5051203;28;20480;-76
2022/06/26 04:28:48;;;;;;;2.90;2.70;;;;;;;-143.84;35.42;44950.06;5050823;28;20820;-76
2022/06/26 04:31:15;;;;;;;2.90;2.60;;;;;;;-143.84;36.25;44917.69;5051716;28;20446;-76
2022/06/26 04:33:43;;;;;;;2.40;2.20;;;;;;;-143.84;35.81;44948.16;5053058;28;20430;-76
2022/06/26 04:36:11;;;;;;;5.33;1.97;;;;;;;-143.84;35.39;44938.63;5052652;28;20440;-76
2022/06/26 04:38:38;;;;;;;6.23;2.17;;;;;;;-143.84;35.09;44927.19;5052737;28;20516;-76
2022/06/26 04:43:46;;;;;;;1.53;1.43;;;;;;;-143.84;34.88;44946.25;5052215;28;20441;-77
2022/06/26 04:46:15;;;;;;;4.40;1.50;;;;;;;-143.84;34.71;44906.25;5053376;28;20584;-77
2022/06/26 04:48:42;;;;;;;2.80;1.50;;;;;;;-143.84;34.82;44921.50;5053181;28;20508;-77
2022/06/26 04:51:09;;;;;;;2.43;1.63;;;;;;;-143.84;34.74;44911.97;5053332;28;20438;-76
2022/06/26 04:53:37;;;;;;;1.30;1.20;;;;;;;-143.84;33.18;44911.97;5053077;28;20441;-76
2022/06/26 04:56:05;;;;;;;1.30;1.20;;;;;;;-143.84;33.52;44911.97;5053441;28;20457;-76
2022/06/26 04:58:32;;;;;;;1.30;1.20;;;;;;;-143.84;32.83;44900.53;5035319;28;20434;-76
2022/06/26 05:00:59;;;;;;;1.27;1.10;;;;;;;-143.84;32.63;44896.75;5053026;28;20508;-76
2022/06/26 05:03:28;;;;;;;2.63;1.00;;;;;;;-143.84;32.63;44927.19;5052685;28;20441;-77
2022/06/26 05:05:55;;;;;;;2.90;1.17;;;;;;;-143.84;32.47;44913.88;5052779;28;20547;-77
2022/06/26 05:08:22;;;;;;;1.83;0.80;;;;;;;-143.84;31.59;44894.84;5052696;28;20422;-79
2022/06/26 05:10:49;;;;;;;2.70;1.00;;;;;;;-143.84;32.99;44900.53;5053222;28;20940;-77
2022/06/26 05:13:16;;;;;;;2.23;1.70;;;;;;;-143.84;33.87;44896.75;5052489;28;20441;-76
2022/06/26 05:15:44;;;;;;;4.70;2.20;;;;;;;-143.84;34.53;44896.75;5052102;28;20846;-77
2022/06/26 05:18:11;;;;;;;1.90;1.80;;;;;;;-143.84;34.54;44889.13;5052456;28;20442;-77
2022/06/26 05:20:39;;;;;;;2.30;2.10;;;;;;;-143.84;34.34;44894.84;5052723;28;21070;-77
2022/06/26 05:23:09;;;;;;;1.67;1.57;;;;;;;-143.84;34.23;44902.44;5052787;28;20438;-77
2022/06/26 05:25:36;;;;;;;2.07;1.87;;;;;;;-143.84;33.89;44896.75;5052525;28;20445;-76
2022/06/26 05:28:03;;;;;;;4.20;1.50;;;;;;;-143.84;34.08;44887.22;5052481;28;20449;-76
2022/06/26 05:30:30;;;;;;;1.73;1.63;;;;;;;-143.84;33.75;44891.03;5052390;28;20434;-77
2022/06/26 05:32:58;;;;;;;1.77;1.67;;;;;;;-143.84;33.89;44887.22;5052444;28;20422;-76
2022/06/26 05:35:25;;;;;;;3.47;1.63;;;;;;;-143.84;34.13;44900.53;5052407;28;20478;-77
2022/06/26 05:37:54;;;;;;;3.27;2.00;;;;;;;-143.84;34.40;44894.84;5052268;28;20501;-76
2022/06/26 05:40:21;;;;;;;2.00;1.80;;;;;;;-143.84;34.31;44898.66;5052413;28;20438;-76
2022/06/26 05:42:50;;;;;;;3.27;1.70;;;;;;;-143.84;33.08;44891.03;5052648;28;20442;-76
2022/06/26 05:45:18;;;;;;;7.30;1.20;;;;;;;-143.84;32.12;44879.59;5052502;28;20767;-76
2022/06/26 05:47:45;;;;;;;1.00;0.80;;;;;;;-143.84;32.63;44862.47;5051365;28;20485;-77
2022/06/26 05:50:12;;;;;;;2.07;1.00;;;;;;;-143.84;31.61;44868.19;5052099;28;21001;-77
2022/06/26 05:52:39;;;;;;;1.20;1.10;;;;;;;-143.84;31.32;44881.50;5051771;28;20434;-76
2022/06/26 05:55:09;;;;;;;1.57;0.70;;;;;;;-143.84;31.18;44866.28;5051957;28;20438;-76
2022/06/26 05:57:36;;;;;;;4.70;0.87;;;;;;;-143.84;30.35;44845.31;5052035;28;20446;-76
2022/06/26 06:00:05;;;;;;;1.60;1.00;;;;;;;-143.84;30.11;44868.19;5051778;28;20442;-78
2022/06/26 06:02:33;;;;;;;1.00;0.90;;;;;;;-143.84;29.84;44871.97;5051927;28;20436;-78
2022/06/26 06:05:00;;;;;;;4.60;1.13;;;;;;;-143.84;30.71;44873.88;5051690;28;21224;-77
2022/06/26 06:07:27;;;;;;;14.57;1.60;;;;;;;-143.84;31.97;44885.31;5051499;28;21335;-78
2022/06/26 06:09:54;;;;;;;6.10;2.60;;;;;;;-143.84;33.23;44870.09;5051652;28;20441;-77
2022/06/26 06:12:23;;;;;;;4.70;2.30;;;;;;;-143.84;33.05;44877.69;5051591;28;20441;-77
2022/06/26 06:14:51;;;;;;;4.90;2.10;;;;;;;-143.84;33.37;44877.69;5051392;28;20485;-80
2022/06/26 06:20:03;;;;;;;2.93;0.80;;;;;;;-143.84;30.95;44841.53;5051929;28;20460;-81
2022/06/26 06:22:31;;;;;;;3.30;2.43;;;;;;;-143.84;32.55;44835.81;5050974;28;20521;-80
2022/06/26 06:24:58;;;;;;;2.63;2.07;;;;;;;-143.84;33.91;44875.78;5051713;28;20432;-80
2022/06/26 06:27:27;;;;;;;13.83;4.30;;;;;;;-143.84;34.57;44841.53;5051594;28;20470;-80
2022/06/26 06:29:54;;;;;;;3.73;3.33;;;;;;;-143.84;34.19;44860.56;5051489;28;20441;-82
2022/06/26 06:32:21;;;;;;;3.60;3.33;;;;;;;-143.84;33.50;44864.38;5050812;28;20437;-81
2022/06/26 06:34:48;;;;;;;6.27;2.77;;;;;;;-143.84;33.67;44871.97;5051737;28;20425;-81
2022/06/26 06:37:16;;;;;;;13.57;2.73;;;;;;;-143.84;33.83;44835.81;5051090;28;20552;-81
2022/06/26 06:39:43;;;;;;;3.97;2.83;;;;;;;-143.84;33.57;44835.81;5051392;28;20450;-83
2022/06/26 06:42:10;;;;;;;8.03;3.10;;;;;;;-143.84;33.41;44816.78;5051582;28;20456;-81
2022/06/26 06:44:39;;;;;;;9.33;3.70;;;;;;;-143.84;33.64;44839.63;5051037;28;20815;-83
2022/06/26 06:47:06;;;;;;;6.13;3.40;;;;;;;-143.84;33.95;44833.91;5051087;28;20469;-80
2022/06/26 06:49:33;;;;;;;5.80;3.07;;;;;;;-143.84;34.14;44822.47;5056451;28;20442;-82
2022/06/26 06:52:01;;;;;;;8.27;3.40;;;;;;;-143.84;33.51;44854.84;5055280;28;20438;-84
2022/06/26 06:54:29;;;;;;;11.40;3.40;;;;;;;-143.84;34.13;44866.28;5055031;28;20442;-84
2022/06/26 06:56:56;;;;;;;3.30;3.00;;;;;;;-143.84;33.78;44858.66;5073048;28;20476;-82
2022/06/26 06:59:23;;;;;;;10.53;3.47;;;;;;;-143.84;33.18;44843.44;5063867;28;20442;-77
2022/06/26 07:01:52;;;;;;;2.83;2.60;;;;;;;-143.84;33.54;44870.09;5068039;28;20445;-77
2022/06/26 07:04:20;;;;;;;2.90;2.70;;;;;;;-143.84;33.20;44860.56;5071418;28;20437;-76
2022/06/26 07:06:48;;;;;;;3.50;2.83;;;;;;;-143.84;33.17;44843.44;5068065;28;20493;-76
2022/06/26 07:09:15;;;;;;;2.60;1.60;;;;;;;-143.84;31.74;44856.75;5065961;28;20445;-77
2022/06/26 07:11:42;;;;;;;2.87;2.67;;;;;;;-143.84;33.89;44832.00;5056778;28;20445;-77
2022/06/26 07:14:09;;;;;;;5.57;2.70;;;;;;;-143.84;32.51;44841.53;5050743;28;20926;-77
2022/06/26 07:16:37;;;;;;;2.43;1.50;;;;;;;-143.84;31.05;44851.03;5031275;28;20450;-75
2022/06/26 07:19:06;;;;;;;1.60;1.50;;;;;;;-143.84;31.62;44841.53;5030662;28;20438;-78
2022/06/26 07:21:33;;;;;;;2.80;0.90;;;;;;;-143.84;30.90;44828.19;5030800;28;20948;-78
2022/06/26 07:24:00;;;;;;;2.00;0.87;;;;;;;-143.84;31.36;44818.66;5031009;28;21018;-77
2022/06/26 07:26:28;;;;;;;3.67;0.73;;;;;;;-143.84;30.96;44833.91;5031317;28;20503;-77
2022/06/26 07:28:55;;;;;;;1.53;1.10;;;;;;;-143.84;29.85;44799.63;5034500;28;20496;-76
2022/06/26 07:31:22;;;;;;;3.73;1.43;;;;;;;-143.84;30.36;44830.09;5035194;28;20435;-76
2022/06/26 07:36:36;;;;;;;3.17;1.03;;;;;;;-143.84;29.73;44835.81;5034975;28;20406;-76
2022/06/26 07:39:03;;;;;;;5.27;2.07;;;;;;;-143.84;30.70;44839.63;5034670;28;20442;-77
2022/06/26 07:41:31;;;;;;;2.90;1.67;;;;;;;-143.84;31.53;44807.25;5034912;28;20442;-76
2022/06/26 07:43:58;;;;;;;5.40;1.33;;;;;;;-143.84;30.50;44818.66;5034425;28;20485;-77
2022/06/26 07:46:25;;;;;;;3.23;2.50;;;;;;;-143.84;31.07;44811.06;5034571;28;20431;-76
2022/06/26 07:48:52;;;;;;;2.13;1.60;;;;;;;-143.84;32.47;44828.19;5034398;28;20446;-78
2022/06/26 07:51:20;;;;;;;8.00;1.20;;;;;;;-143.84;31.21;44797.72;5034166;28;20442;-79
2022/06/26 07:53:48;;;;;;;5.93;0.90;;;;;;;-143.84;31.35;44832.00;5046670;28;20938;-79
2022/06/26 07:56:16;;;;;;;2.30;1.40;;;;;;;-143.84;29.80;44826.28;5054051;28;20946;-78
2022/06/26 07:58:43;;;;;;;7.17;1.70;;;;;;;-143.84;31.23;44832.00;5055443;28;20433;-79
2022/06/26 08:01:10;;;;;;;2.00;1.80;;;;;;;-143.84;30.98;44811.06;5053194;28;20446;-78
2022/06/26 08:03:38;;;;;;;7.37;1.97;;;;;;;-143.84;31.11;44805.34;5054694;28;20438;-81
2022/06/26 08:06:05;;;;;;;9.13;1.67;;;;;;;-143.84;31.37;44841.53;5051954;28;20456;-79
2022/06/26 08:08:32;;;;;;;3.30;2.17;;;;;;;-143.84;30.72;44826.28;5051381;28;20473;-76
2022/06/26 08:11:01;;;;;;;7.57;2.47;;;;;;;-143.84;32.20;44852.94;5051607;28;20437;-76
2022/06/26 08:13:29;;;;;;;5.80;2.63;;;;;;;-143.84;32.17;44847.22;5052097;28;20446;-77
2022/06/26 08:15:56;;;;;;;4.90;3.20;;;;;;;-143.84;31.95;44860.56;5051901;28;22016;-77
2022/06/26 08:18:23;;;;;;;14.37;2.90;;;;;;;-143.84;31.58;44809.16;5052447;28;20448;-76
2022/06/26 08:20:50;;;;;;;4.63;3.60;;;;;;;-143.84;31.83;44830.09;5050640;28;20496;-76
2022/06/26 08:23:17;;;;;;;9.10;2.27;;;;;;;-143.84;32.31;44814.88;5050871;28;20450;-76
2022/06/26 08:25:45;;;;;;;1.87;1.77;;;;;;;-143.84;31.65;44843.44;5054283;28;20442;-79
2022/06/26 08:28:13;;;;;;;5.40;2.80;;;;;;;-143.84;32.94;44852.94;5040710;28;20468;-75
2022/06/26 08:30:40;;;;;;;4.20;2.97;;;;;;;-143.84;33.43;44847.22;5050346;28;20441;-73
2022/06/26 08:33:07;;;;;;;2.10;1.90;;;;;;;-143.84;32.51;44870.09;5048812;28;20446;-75
2022/06/26 08:35:35;;;;;;;9.83;2.50;;;;;;;-143.84;33.56;44860.56;5050477;28;20445;-74
2022/06/26 08:38:02;;;;;;;2.83;2.30;;;;;;;-143.84;32.83;44887.22;5051209;28;21002;-73
2022/06/26 08:40:29;;;;;;;4.90;2.33;;;;;;;-143.84;33.66;44866.28;5050113;28;20495;-73
2022/06/26 08:42:57;;;;;;;3.50;2.00;;;;;;;-143.84;33.25;44864.38;5050987;28;20991;-74
2022/06/26 08:45:27;;;;;;;3.80;2.30;;;;;;;-143.84;33.25;44879.59;5050751;28;20453;-74
2022/06/26 08:47:57;;;;;;;3.40;2.80;;;;;;;-143.84;34.15;44883.41;5049950;28;20462;-74
2022/06/26 08:50:25;;;;;;;4.43;2.83;;;;;;;-143.84;34.14;44866.28;5029499;28;20864;-75
2022/06/26 08:52:53;;;;;;;1.80;1.67;;;;;;;-143.84;33.55;44860.56;5029475;28;20446;-75
2022/06/26 08:55:21;;;;;;;6.67;2.13;;;;;;;-143.84;33.68;44892.94;5030842;28;20805;-74
2022/06/26 08:57:49;;;;;;;3.43;1.80;;;;;;;-143.84;33.78;44877.69;5030116;28;20470;-73
2022/06/26 09:00:17;;;;;;;2.70;1.87;;;;;;;-143.84;34.18;44900.53;5030134;28;21001;-75
2022/06/26 09:02:46;;;;;;;2.20;2.10;;;;;;;-143.84;33.56;44881.50;5031029;28;20874;-74
2022/06/26 09:05:14;;;;;;;3.10;2.60;;;;;;;-143.84;33.91;44868.19;5030157;28;20443;-77
2022/06/26 09:07:49;;;;;;;2.80;2.60;;;;;;;-143.84;33.67;44862.47;5040653;28;20670;-76
2022/06/26 09:10:18;;;;;;;3.00;2.43;;;;;;;-143.84;34.06;44881.50;5047322;28;20429;-74
2022/06/26 09:12:51;;;;;;;1.83;1.73;;;;;;;-143.84;33.54;44885.31;5049766;28;20469;-76
2022/06/26 09:15:20;;;;;;;5.13;2.17;;;;;;;-143.84;32.91;44885.31;5050276;28;20465;-75
2022/06/26 09:18:01;;;;;;;15.03;2.13;;;;;;;-143.84;33.12;44875.78;5050858;28;20445;-76
2022/06/26 09:20:29;;;;;;;2.47;2.27;;;;;;;-143.84;33.14;44858.66;5051601;28;20445;-74
2022/06/26 09:22:57;;;;;;;9.53;4.77;;;;;;;-143.84;33.42;44889.13;5050827;28;20923;-74
2022/06/26 09:25:36;;;;;;;3.13;2.47;;;;;;;-143.84;34.41;44851.03;5050318;28;20446;-74
2022/06/26 09:28:08;;;;;;;8.03;4.50;;;;;;;-143.84;32.62;44866.28;5049754;28;20484;-74
2022/06/26 09:30:45;;;;;;;4.40;3.50;;;;;;;-143.84;33.11;44845.31;5046514;28;20858;-73
2022/06/26 09:33:14;;;;;;;9.13;1.60;;;;;;;-143.84;33.40;44820.56;5048739;28;20881;-74
2022/06/26 09:35:42;;;;;;;1.40;1.30;;;;;;;-143.84;33.14;44822.47;5048711;28;20450;-72
2022/06/26 09:38:09;;;;;;;7.37;1.83;;;;;;;-143.84;32.63;44847.22;5052544;28;20434;-73
2022/06/26 09:40:36;;;;;;;1.77;1.57;;;;;;;-143.84;33.89;44862.47;5049684;28;21224;-73
2022/06/26 09:43:03;;;;;;;1.47;1.37;;;;;;;-143.84;32.89;44830.09;5049159;28;21278;-74
2022/06/26 09:45:40;;;;;;;1.50;1.40;;;;;;;-143.84;31.43;44851.03;5049734;28;20437;-74
2022/06/26 09:48:10;;;;;;;4.20;1.30;;;;;;;-143.84;31.18;44809.16;5049910;28;20481;-73
2022/06/26 09:50:39;;;;;;;1.60;1.20;;;;;;;-143.84;31.56;44864.38;5049176;28;20474;-74
2022/06/26 09:53:07;;;;;;;2.60;1.40;;;;;;;-143.84;30.72;44877.69;5050164;28;20449;-80
2022/06/26 09:55:35;;;;;;;4.67;1.40;;;;;;;-143.84;31.69;44856.75;5050285;28;20448;-73
2022/06/26 09:58:04;;;;;;;2.13;1.40;;;;;;;-143.84;31.85;44868.19;5049741;28;20472;-73
2022/06/26 10:00:35;;;;;;;6.93;1.10;;;;;;;-143.84;31.84;44896.75;5050478;28;21008;-76
2022/06/26 10:08:35;;;;;;;7.50;1.33;;;;;;;-143.84;31.87;44902.44;5048679;28;20460;-75
2022/06/26 10:11:03;;;;;;;5.83;1.20;;;;;;;-143.84;32.94;44870.09;5051289;28;20521;-73
2022/06/26 10:13:34;;;;;;;4.73;1.60;;;;;;;-143.84;32.12;44908.16;5051316;28;20453;-79
2022/06/26 10:16:15;;;;;;;5.27;1.40;;;;;;;-143.84;32.65;44866.28;5048384;28;20490;-72
2022/06/26 10:18:50;;;;;;;1.40;1.30;;;;;;;-143.84;32.71;44877.69;5047839;28;20554;-72
2022/06/26 10:21:19;;;;;;;4.00;1.20;;;;;;;-143.84;32.59;44860.56;5049491;28;20449;-78
2022/06/26 10:23:46;;;;;;;1.50;1.10;;;;;;;-143.84;32.18;44879.59;5050494;28;20460;-79
2022/06/26 10:26:15;;;;;;;1.40;1.30;;;;;;;-143.84;33.23;44875.78;5049470;28;20450;-76
2022/06/26 10:28:59;;;;;;;1.30;1.20;;;;;;;-143.84;33.57;44891.03;5050200;28;20493;-77
2022/06/26 10:31:29;;;;;;;2.13;1.00;;;;;;;-143.84;33.00;44896.75;5049710;28;20500;-74
2022/06/26 10:33:56;;;;;;;1.20;1.10;;;;;;;-143.84;33.23;44911.97;5049103;28;20449;-76
2022/06/26 10:36:26;;;;;;;3.53;1.00;;;;;;;-143.84;34.08;44892.94;5049665;28;20449;-72
2022/06/26 10:39:04;;;;;;;1.77;1.67;;;;;;;-143.84;33.65;44870.09;5050004;28;20450;-73
2022/06/26 10:44:33;;;;;;;1.40;1.30;;;;;;;-143.84;33.94;44883.41;5048218;28;20432;-81
2022/06/26 10:47:01;;;;;;;772.27;607.10;;;;;;;-143.84;32.80;44885.31;5049280;28;20449;-72
2022/06/26 10:49:28;;;;;;;340.77;307.00;;;;;;;-143.84;33.27;44868.19;5048505;28;20484;-76
2022/06/26 10:51:57;;;;;;;160.50;143.47;;;;;;;-143.84;33.83;44877.69;5048258;28;20790;-71
2022/06/26 10:54:27;;;;;;;808.57;726.53;;;;;;;-143.84;34.31;44873.88;5048843;28;20454;-74
2022/06/26 10:57:12;;;;;;;469.47;421.67;;;;;;;-143.84;34.06;44887.22;5049289;28;20460;-76
2022/06/26 10:59:40;;;;;;;61.67;55.20;;;;;;;-143.84;34.24;44889.13;5049189;28;20836;-77
2022/06/26 11:02:09;;;;;;;974.33;705.40;;;;;;;-143.84;34.96;44868.19;5030915;28;20446;-74
2022/06/26 11:04:45;;;;;;;593.23;528.97;;;;;;;-143.84;34.91;44889.13;5045022;28;20444;-80
2022/06/26 11:07:16;;;;;;;250.50;223.93;;;;;;;-143.84;34.14;44906.25;5054135;28;20433;-76
2022/06/26 11:09:44;;;;;;;730.30;656.03;;;;;;;-143.84;33.25;44883.41;5053809;28;20481;-77
2022/06/26 11:12:12;;;;;;;1540.10;999.90;;;;;;;-143.84;33.97;44891.03;5054513;28;20444;-74
2022/06/26 11:14:39;;;;;;;1999.90;999.90;;;;;;;-143.84;33.75;44917.69;5053047;28;21002;-72
2022/06/26 11:17:07;;;;;;;346.67;312.83;;;;;;;-143.84;34.13;44870.09;5060480;28;20514;-75
2022/06/26 11:20:46;;;;;;;155.07;140.50;;;;;;;-143.84;33.40;44875.78;5073027;28;20440;-78
2022/06/26 11:22:28;;;;;;;474.10;428.30;;;;;;;-143.84;34.14;44887.22;5053337;28;20462;-77
2022/06/26 11:24:57;;;;;;;937.73;835.20;;;;;;;-143.84;34.35;44892.94;5053354;28;20425;-74
2022/06/26 11:27:25;;;;;;;681.37;572.00;;;;;;;-143.84;34.59;44885.31;5053344;28;20434;-79
2022/06/26 11:29:52;;;;;;;98.20;88.37;;;;;;;-143.84;34.63;44898.66;5053019;28;20998;-78
2022/06/26 11:32:21;;;;;;;19.73;11.93;;;;;;;-143.84;34.91;44898.66;5057579;28;20448;-78
2022/06/26 11:34:49;;;;;;;2.63;2.43;;;;;;;-143.84;34.68;44883.41;5073205;28;20452;-76
2022/06/26 11:37:17;;;;;;;3.63;1.80;;;;;;;-143.84;34.33;44910.06;5074056;28;20436;-76
2022/06/26 11:39:45;;;;;;;1.47;1.37;;;;;;;-143.84;34.96;44898.66;5073773;28;20953;-75
2022/06/26 11:42:17;;;;;;;4.00;1.67;;;;;;;-143.84;35.57;44902.44;5074054;28;20445;-78